sensor_id;sensor_type;location;lat;lon;timestamp;pressure;altitude;pressure_sealevel;temperature;humidity
42671;BME280;28283;55.426;37.756;2023-06-22T00:00:40;99660.53;;;14.13;44.08
42671;BME280;28283;55.426;37.756;2023-06-22T00:05:42;99664.25;;;14.12;43.75
42671;BME280;28283;55.426;37.756;2023-06-22T00:10:43;99662.22;;;14.07;44.00
42671;BME280;28283;55.426;37.756;2023-06-22T00:15:44;99659.34;;;14.02;44.66
42671;BME280;28283;55.426;37.756;2023-06-22T00:20:44;99658.53;;;14.02;45.09
42671;BME280;28283;55.426;37.756;2023-06-22T00:25:46;99654.97;;;14.01;44.40
42671;BME280;28283;55.426;37.756;2023-06-22T00:30:48;99656.84;;;14.01;44.65
42671;BME280;28283;55.426;37.756;2023-06-22T00:35:48;99652.25;;;14.01;44.14
42671;BME280;28283;55.426;37.756;2023-06-22T00:40:52;99654.75;;;14.03;44.32
42671;BME280;28283;55.426;37.756;2023-06-22T00:45:54;99653.94;;;14.02;43.94
42671;BME280;28283;55.426;37.756;2023-06-22T00:50:56;99657.06;;;13.99;44.90
42671;BME280;28283;55.426;37.756;2023-06-22T00:55:57;99663.94;;;13.95;44.21
42671;BME280;28283;55.426;37.756;2023-06-22T01:00:59;99662.28;;;13.94;44.94
42671;BME280;28283;55.426;37.756;2023-06-22T01:06:02;99660.81;;;13.98;44.20
42671;BME280;28283;55.426;37.756;2023-06-22T01:11:14;99657.88;;;14.00;45.00
42671;BME280;28283;55.426;37.756;2023-06-22T01:16:18;99664.75;;;14.02;44.70
42671;BME280;28283;55.426;37.756;2023-06-22T01:21:21;99668.88;;;14.05;43.88
42671;BME280;28283;55.426;37.756;2023-06-22T01:26:28;99671.38;;;14.06;44.52
42671;BME280;28283;55.426;37.756;2023-06-22T01:31:35;99665.97;;;14.06;43.81
42671;BME280;28283;55.426;37.756;2023-06-22T01:36:35;99667.03;;;14.05;44.03
42671;BME280;28283;55.426;37.756;2023-06-22T01:41:38;99629.09;;;13.80;44.86
42671;BME280;28283;55.426;37.756;2023-06-22T01:46:39;99666.41;;;14.03;45.55
42671;BME280;28283;55.426;37.756;2023-06-22T01:51:39;99657.06;;;13.99;45.46
42671;BME280;28283;55.426;37.756;2023-06-22T01:56:40;99656.84;;;14.01;45.59
42671;BME280;28283;55.426;37.756;2023-06-22T02:01:45;99658.72;;;14.00;46.11
42671;BME280;28283;55.426;37.756;2023-06-22T02:06:47;99659.16;;;13.97;45.66
42671;BME280;28283;55.426;37.756;2023-06-22T02:11:50;99657.94;;;13.93;45.87
42671;BME280;28283;55.426;37.756;2023-06-22T02:16:55;99658.34;;;13.90;46.70
42671;BME280;28283;55.426;37.756;2023-06-22T02:21:59;99659.38;;;13.89;46.79
42671;BME280;28283;55.426;37.756;2023-06-22T02:27:00;99661.28;;;13.88;45.53
42671;BME280;28283;55.426;37.756;2023-06-22T02:32:01;99666.84;;;13.93;45.46
42671;BME280;28283;55.426;37.756;2023-06-22T02:37:01;99646.00;;;14.07;45.83
42671;BME280;28283;55.426;37.756;2023-06-22T02:42:02;99658.00;;;14.18;45.73
42671;BME280;28283;55.426;37.756;2023-06-22T02:47:03;99648.38;;;14.29;46.29
42671;BME280;28283;55.426;37.756;2023-06-22T02:52:03;99654.78;;;14.35;46.44
42671;BME280;28283;55.426;37.756;2023-06-22T02:57:04;99630.19;;;14.43;46.39
42671;BME280;28283;55.426;37.756;2023-06-22T03:02:04;99633.28;;;14.46;46.74
42671;BME280;28283;55.426;37.756;2023-06-22T03:07:05;99633.44;;;14.51;46.76
42671;BME280;28283;55.426;37.756;2023-06-22T03:12:05;99634.03;;;14.60;46.96
42671;BME280;28283;55.426;37.756;2023-06-22T03:17:07;99629.50;;;14.79;47.48
42671;BME280;28283;55.426;37.756;2023-06-22T03:22:07;99635.53;;;15.00;48.79
42671;BME280;28283;55.426;37.756;2023-06-22T03:27:07;99631.63;;;14.96;48.40
42671;BME280;28283;55.426;37.756;2023-06-22T03:32:08;99632.88;;;15.18;49.42
42671;BME280;28283;55.426;37.756;2023-06-22T03:37:08;99632.19;;;15.23;49.56
42671;BME280;28283;55.426;37.756;2023-06-22T03:42:09;99631.81;;;15.19;49.46
42671;BME280;28283;55.426;37.756;2023-06-22T03:47:09;99616.63;;;15.37;49.25
42671;BME280;28283;55.426;37.756;2023-06-22T03:52:10;99619.03;;;15.45;49.02
42671;BME280;28283;55.426;37.756;2023-06-22T03:57:11;99615.72;;;15.61;48.98
42671;BME280;28283;55.426;37.756;2023-06-22T04:02:11;99607.44;;;15.75;49.20
42671;BME280;28283;55.426;37.756;2023-06-22T04:07:12;99598.91;;;15.90;49.16
42671;BME280;28283;55.426;37.756;2023-06-22T04:12:12;99596.28;;;16.13;48.79
42671;BME280;28283;55.426;37.756;2023-06-22T04:17:13;99599.19;;;16.42;48.66
42671;BME280;28283;55.426;37.756;2023-06-22T04:22:14;99592.94;;;16.65;48.00
42671;BME280;28283;55.426;37.756;2023-06-22T04:27:15;99594.06;;;16.88;47.60
42671;BME280;28283;55.426;37.756;2023-06-22T04:32:16;99599.13;;;17.20;47.70
42671;BME280;28283;55.426;37.756;2023-06-22T04:37:16;99592.16;;;17.64;48.23
42671;BME280;28283;55.426;37.756;2023-06-22T04:42:16;99588.22;;;17.72;48.03
42671;BME280;28283;55.426;37.756;2023-06-22T04:47:17;99588.09;;;17.79;47.37
42671;BME280;28283;55.426;37.756;2023-06-22T04:52:17;99591.34;;;17.92;47.53
42671;BME280;28283;55.426;37.756;2023-06-22T04:57:20;99594.47;;;18.13;48.06
42671;BME280;28283;55.426;37.756;2023-06-22T05:02:20;99590.59;;;18.09;48.55
42671;BME280;28283;55.426;37.756;2023-06-22T05:07:21;99594.00;;;18.16;48.51
42671;BME280;28283;55.426;37.756;2023-06-22T05:12:27;99590.78;;;18.36;47.85
42671;BME280;28283;55.426;37.756;2023-06-22T05:17:28;99586.25;;;18.76;47.17
42671;BME280;28283;55.426;37.756;2023-06-22T05:22:28;99575.28;;;18.70;47.28
42671;BME280;28283;55.426;37.756;2023-06-22T05:27:28;99572.53;;;19.26;44.32
42671;BME280;28283;55.426;37.756;2023-06-22T05:32:29;99581.47;;;19.22;43.45
42671;BME280;28283;55.426;37.756;2023-06-22T05:37:29;99571.16;;;19.46;42.41
42671;BME280;28283;55.426;37.756;2023-06-22T05:42:30;99574.81;;;19.57;42.95
42671;BME280;28283;55.426;37.756;2023-06-22T05:47:30;99570.72;;;20.03;40.35
42671;BME280;28283;55.426;37.756;2023-06-22T05:52:31;99570.03;;;20.18;40.03
42671;BME280;28283;55.426;37.756;2023-06-22T05:57:31;99570.84;;;20.46;39.69
42671;BME280;28283;55.426;37.756;2023-06-22T06:02:32;99579.06;;;20.51;39.45
42671;BME280;28283;55.426;37.756;2023-06-22T06:07:33;99567.25;;;20.46;40.16
42671;BME280;28283;55.426;37.756;2023-06-22T06:12:34;99567.09;;;20.57;40.07
42671;BME280;28283;55.426;37.756;2023-06-22T06:17:35;99564.44;;;20.63;40.25
42671;BME280;28283;55.426;37.756;2023-06-22T06:22:35;99568.91;;;20.47;41.42
42671;BME280;28283;55.426;37.756;2023-06-22T06:27:36;99567.59;;;20.87;39.81
42671;BME280;28283;55.426;37.756;2023-06-22T06:32:36;99558.09;;;21.00;40.58
42671;BME280;28283;55.426;37.756;2023-06-22T06:37:41;99551.13;;;21.29;39.73
42671;BME280;28283;55.426;37.756;2023-06-22T06:42:43;99554.78;;;21.45;38.88
42671;BME280;28283;55.426;37.756;2023-06-22T06:47:45;99559.75;;;21.59;38.97
42671;BME280;28283;55.426;37.756;2023-06-22T06:52:46;99560.09;;;21.78;37.27
42671;BME280;28283;55.426;37.756;2023-06-22T06:57:46;99559.28;;;21.77;37.28
42671;BME280;28283;55.426;37.756;2023-06-22T07:02:49;99556.84;;;21.96;37.82
42671;BME280;28283;55.426;37.756;2023-06-22T07:07:50;99550.84;;;22.20;36.07
42671;BME280;28283;55.426;37.756;2023-06-22T07:12:50;99554.44;;;22.30;36.54
42671;BME280;28283;55.426;37.756;2023-06-22T07:17:51;99547.03;;;22.52;36.06
42671;BME280;28283;55.426;37.756;2023-06-22T07:22:51;99542.63;;;22.61;36.43
42671;BME280;28283;55.426;37.756;2023-06-22T07:32:57;99553.84;;;22.75;35.12
42671;BME280;28283;55.426;37.756;2023-06-22T07:37:58;99543.72;;;22.75;35.49
42671;BME280;28283;55.426;37.756;2023-06-22T07:42:58;99550.59;;;22.67;34.85
42671;BME280;28283;55.426;37.756;2023-06-22T07:47:59;99538.00;;;22.41;35.92
42671;BME280;28283;55.426;37.756;2023-06-22T07:52:59;99534.72;;;22.54;35.58
42671;BME280;28283;55.426;37.756;2023-06-22T07:58:00;99538.00;;;22.46;36.21
42671;BME280;28283;55.426;37.756;2023-06-22T08:03:00;99533.06;;;22.53;36.07
42671;BME280;28283;55.426;37.756;2023-06-22T08:08:03;99524.53;;;22.80;36.01
42671;BME280;28283;55.426;37.756;2023-06-22T08:13:04;99530.81;;;22.86;35.34
42671;BME280;28283;55.426;37.756;2023-06-22T08:18:04;99520.69;;;22.92;35.46
42671;BME280;28283;55.426;37.756;2023-06-22T08:23:05;99525.09;;;22.72;35.93
42671;BME280;28283;55.426;37.756;2023-06-22T08:28:06;99521.75;;;22.96;35.49
42671;BME280;28283;55.426;37.756;2023-06-22T08:33:07;99523.69;;;22.85;36.03
42671;BME280;28283;55.426;37.756;2023-06-22T08:38:07;99508.84;;;22.96;35.77
42671;BME280;28283;55.426;37.756;2023-06-22T08:43:09;99512.41;;;23.07;35.54
42671;BME280;28283;55.426;37.756;2023-06-22T08:48:09;99495.13;;;23.17;35.66
42671;BME280;28283;55.426;37.756;2023-06-22T08:53:09;99498.97;;;23.05;35.84
42671;BME280;28283;55.426;37.756;2023-06-22T08:58:10;99501.94;;;23.24;35.19
42671;BME280;28283;55.426;37.756;2023-06-22T09:03:11;99495.94;;;23.17;34.79
42671;BME280;28283;55.426;37.756;2023-06-22T09:08:11;99493.44;;;23.26;34.60
42671;BME280;28283;55.426;37.756;2023-06-22T09:13:12;99492.00;;;23.39;34.61
42671;BME280;28283;55.426;37.756;2023-06-22T09:18:13;99482.72;;;23.30;35.00
42671;BME280;28283;55.426;37.756;2023-06-22T09:23:13;99481.13;;;23.63;34.08
42671;BME280;28283;55.426;37.756;2023-06-22T09:28:14;99485.72;;;23.78;34.00
42671;BME280;28283;55.426;37.756;2023-06-22T09:33:15;99437.56;;;23.56;34.30
42671;BME280;28283;55.426;37.756;2023-06-22T09:38:15;99470.78;;;23.99;33.49
42671;BME280;28283;55.426;37.756;2023-06-22T09:43:16;99459.91;;;24.13;32.91
42671;BME280;28283;55.426;37.756;2023-06-22T09:48:17;99468.88;;;23.95;33.26
42671;BME280;28283;55.426;37.756;2023-06-22T09:53:17;99476.63;;;24.17;32.93
42671;BME280;28283;55.426;37.756;2023-06-22T09:58:18;99468.56;;;24.01;33.97
42671;BME280;28283;55.426;37.756;2023-06-22T10:03:18;99457.66;;;24.79;31.96
42671;BME280;28283;55.426;37.756;2023-06-22T10:08:19;99456.69;;;24.89;31.81
42671;BME280;28283;55.426;37.756;2023-06-22T10:13:19;99403.34;;;24.90;31.29
42671;BME280;28283;55.426;37.756;2023-06-22T10:18:20;99439.28;;;24.99;30.92
42671;BME280;28283;55.426;37.756;2023-06-22T10:23:21;99435.47;;;24.70;32.05
42671;BME280;28283;55.426;37.756;2023-06-22T10:28:21;99429.50;;;25.49;30.92
42671;BME280;28283;55.426;37.756;2023-06-22T10:33:22;99428.81;;;25.20;31.80
42671;BME280;28283;55.426;37.756;2023-06-22T10:38:23;99423.81;;;25.98;31.04
42671;BME280;28283;55.426;37.756;2023-06-22T10:43:25;99420.69;;;26.04;31.28
42671;BME280;28283;55.426;37.756;2023-06-22T10:48:25;99402.72;;;26.07;30.05
42671;BME280;28283;55.426;37.756;2023-06-22T10:53:26;99401.31;;;26.23;29.82
42671;BME280;28283;55.426;37.756;2023-06-22T10:58:26;99395.00;;;26.23;29.99
42671;BME280;28283;55.426;37.756;2023-06-22T11:03:26;99399.38;;;26.10;30.36
42671;BME280;28283;55.426;37.756;2023-06-22T11:08:27;99389.41;;;26.28;30.55
42671;BME280;28283;55.426;37.756;2023-06-22T11:13:27;99384.22;;;26.82;30.40
42671;BME280;28283;55.426;37.756;2023-06-22T11:18:28;99386.88;;;27.23;30.72
42671;BME280;28283;55.426;37.756;2023-06-22T11:23:29;99379.38;;;27.52;29.41
42671;BME280;28283;55.426;37.756;2023-06-22T11:28:30;99367.50;;;27.96;28.67
42671;BME280;28283;55.426;37.756;2023-06-22T11:33:30;99337.59;;;27.98;27.23
42671;BME280;28283;55.426;37.756;2023-06-22T11:38:31;99365.78;;;28.09;28.00
42671;BME280;28283;55.426;37.756;2023-06-22T11:43:31;99354.56;;;28.06;27.31
42671;BME280;28283;55.426;37.756;2023-06-22T11:48:32;99352.81;;;27.65;28.70
42671;BME280;28283;55.426;37.756;2023-06-22T11:53:32;99352.28;;;27.85;28.03
42671;BME280;28283;55.426;37.756;2023-06-22T11:58:34;99341.72;;;27.56;29.27
42671;BME280;28283;55.426;37.756;2023-06-22T12:03:34;99332.03;;;28.61;29.22
42671;BME280;28283;55.426;37.756;2023-06-22T12:08:35;99322.84;;;29.18;27.33
42671;BME280;28283;55.426;37.756;2023-06-22T12:13:36;99320.31;;;28.64;26.92
42671;BME280;28283;55.426;37.756;2023-06-22T12:18:36;99319.44;;;28.46;27.12
42671;BME280;28283;55.426;37.756;2023-06-22T12:23:37;99310.78;;;28.48;27.44
42671;BME280;28283;55.426;37.756;2023-06-22T12:28:38;99298.44;;;28.45;27.44
42671;BME280;28283;55.426;37.756;2023-06-22T12:33:38;99301.09;;;28.10;28.32
42671;BME280;28283;55.426;37.756;2023-06-22T12:38:39;99289.09;;;27.84;28.60
42671;BME280;28283;55.426;37.756;2023-06-22T12:43:40;99281.78;;;27.88;28.98
42671;BME280;28283;55.426;37.756;2023-06-22T12:48:40;99284.72;;;28.23;29.43
42671;BME280;28283;55.426;37.756;2023-06-22T12:53:41;99269.22;;;29.49;28.72
42671;BME280;28283;55.426;37.756;2023-06-22T12:58:43;99264.94;;;30.07;26.87
42671;BME280;28283;55.426;37.756;2023-06-22T13:03:44;99272.81;;;29.97;26.76
42671;BME280;28283;55.426;37.756;2023-06-22T13:08:44;99281.75;;;29.38;27.02
42671;BME280;28283;55.426;37.756;2023-06-22T13:13:45;99267.31;;;29.15;27.13
42671;BME280;28283;55.426;37.756;2023-06-22T13:18:46;99264.84;;;28.61;28.13
42671;BME280;28283;55.426;37.756;2023-06-22T13:23:46;99257.78;;;28.46;27.86
42671;BME280;28283;55.426;37.756;2023-06-22T13:28:47;99252.19;;;28.20;28.77
42671;BME280;28283;55.426;37.756;2023-06-22T13:33:47;99253.78;;;29.13;28.25
42671;BME280;28283;55.426;37.756;2023-06-22T13:38:49;99233.63;;;29.77;26.61
42671;BME280;28283;55.426;37.756;2023-06-22T13:43:49;99241.84;;;29.47;27.14
42671;BME280;28283;55.426;37.756;2023-06-22T13:48:50;99237.75;;;29.54;26.90
42671;BME280;28283;55.426;37.756;2023-06-22T13:53:50;99230.81;;;29.86;26.50
42671;BME280;28283;55.426;37.756;2023-06-22T13:58:51;99235.00;;;29.45;27.12
42671;BME280;28283;55.426;37.756;2023-06-22T14:03:51;99228.59;;;29.70;26.76
42671;BME280;28283;55.426;37.756;2023-06-22T14:08:52;99222.81;;;29.37;26.94
42671;BME280;28283;55.426;37.756;2023-06-22T14:13:52;99219.25;;;29.02;27.54
42671;BME280;28283;55.426;37.756;2023-06-22T14:18:53;99207.72;;;28.56;28.35
42671;BME280;28283;55.426;37.756;2023-06-22T14:23:54;99216.63;;;28.44;28.68
42671;BME280;28283;55.426;37.756;2023-06-22T14:28:55;99207.75;;;28.65;28.62
42671;BME280;28283;55.426;37.756;2023-06-22T14:33:56;99197.78;;;28.55;28.91
42671;BME280;28283;55.426;37.756;2023-06-22T14:38:57;99196.81;;;29.21;27.87
42671;BME280;28283;55.426;37.756;2023-06-22T14:43:57;99193.91;;;28.73;27.43
42671;BME280;28283;55.426;37.756;2023-06-22T14:48:58;99182.81;;;28.47;27.97
42671;BME280;28283;55.426;37.756;2023-06-22T14:53:58;99189.94;;;28.31;28.23
42671;BME280;28283;55.426;37.756;2023-06-22T14:58:59;99188.94;;;28.09;28.83
42671;BME280;28283;55.426;37.756;2023-06-22T15:03:59;99186.94;;;27.92;28.98
42671;BME280;28283;55.426;37.756;2023-06-22T15:09:00;99183.44;;;28.18;29.16
42671;BME280;28283;55.426;37.756;2023-06-22T15:14:00;99183.44;;;28.44;28.75
42671;BME280;28283;55.426;37.756;2023-06-22T15:19:01;99174.34;;;28.17;29.09
42671;BME280;28283;55.426;37.756;2023-06-22T15:24:02;99168.47;;;28.19;29.27
42671;BME280;28283;55.426;37.756;2023-06-22T15:29:03;99170.88;;;28.03;29.26
42671;BME280;28283;55.426;37.756;2023-06-22T15:34:03;99167.97;;;28.08;29.26
42671;BME280;28283;55.426;37.756;2023-06-22T15:39:04;99155.66;;;28.23;28.83
42671;BME280;28283;55.426;37.756;2023-06-22T15:44:04;99153.56;;;28.46;28.62
42671;BME280;28283;55.426;37.756;2023-06-22T15:49:05;99151.75;;;28.50;28.71
42671;BME280;28283;55.426;37.756;2023-06-22T15:54:06;99148.97;;;28.85;28.54
42671;BME280;28283;55.426;37.756;2023-06-22T15:59:06;99150.75;;;28.99;28.47
42671;BME280;28283;55.426;37.756;2023-06-22T16:04:06;99146.91;;;28.56;29.05
42671;BME280;28283;55.426;37.756;2023-06-22T16:09:07;99153.72;;;28.67;29.34
42671;BME280;28283;55.426;37.756;2023-06-22T16:14:07;99141.28;;;29.08;29.14
42671;BME280;28283;55.426;37.756;2023-06-22T16:19:10;99134.88;;;29.81;27.93
42671;BME280;28283;55.426;37.756;2023-06-22T16:24:11;99121.38;;;30.22;27.76
42671;BME280;28283;55.426;37.756;2023-06-22T16:29:12;99125.16;;;30.59;27.83
42671;BME280;28283;55.426;37.756;2023-06-22T16:34:12;99124.25;;;30.89;27.30
42671;BME280;28283;55.426;37.756;2023-06-22T16:39:13;99111.06;;;30.31;27.77
42671;BME280;28283;55.426;37.756;2023-06-22T16:44:13;99094.38;;;29.89;28.50
42671;BME280;28283;55.426;37.756;2023-06-22T16:49:14;99110.97;;;29.98;28.79
42671;BME280;28283;55.426;37.756;2023-06-22T16:54:14;99104.16;;;30.58;28.45
42671;BME280;28283;55.426;37.756;2023-06-22T16:59:15;99107.44;;;30.73;28.44
42671;BME280;28283;55.426;37.756;2023-06-22T17:04:16;99105.84;;;30.08;28.43
42671;BME280;28283;55.426;37.756;2023-06-22T17:09:19;99116.94;;;28.49;29.68
42671;BME280;28283;55.426;37.756;2023-06-22T17:14:21;99123.25;;;27.17;31.94
42671;BME280;28283;55.426;37.756;2023-06-22T17:19:23;99118.19;;;26.20;33.69
42671;BME280;28283;55.426;37.756;2023-06-22T17:24:24;99125.63;;;25.23;35.31
42671;BME280;28283;55.426;37.756;2023-06-22T17:29:28;99131.09;;;24.62;33.87
42671;BME280;28283;55.426;37.756;2023-06-22T17:34:31;99140.56;;;24.13;35.02
42671;BME280;28283;55.426;37.756;2023-06-22T17:39:32;99140.91;;;23.63;35.34
42671;BME280;28283;55.426;37.756;2023-06-22T17:44:32;99149.41;;;23.13;36.91
42671;BME280;28283;55.426;37.756;2023-06-22T17:49:33;99151.34;;;22.73;37.35
42671;BME280;28283;55.426;37.756;2023-06-22T17:54:33;99151.34;;;22.34;39.06
42671;BME280;28283;55.426;37.756;2023-06-22T17:59:34;99145.78;;;21.94;37.86
42671;BME280;28283;55.426;37.756;2023-06-22T18:04:34;99165.63;;;21.55;38.34
42671;BME280;28283;55.426;37.756;2023-06-22T18:09:35;99161.31;;;21.18;39.95
42671;BME280;28283;55.426;37.756;2023-06-22T18:14:35;99168.44;;;20.88;40.68
42671;BME280;28283;55.426;37.756;2023-06-22T18:19:37;99159.69;;;20.66;41.83
42671;BME280;28283;55.426;37.756;2023-06-22T18:24:39;99165.09;;;20.45;42.12
42671;BME280;28283;55.426;37.756;2023-06-22T18:29:40;99158.78;;;20.19;44.04
42671;BME280;28283;55.426;37.756;2023-06-22T18:34:41;99165.00;;;20.04;43.01
42671;BME280;28283;55.426;37.756;2023-06-22T18:39:43;99156.19;;;19.81;44.58
42671;BME280;28283;55.426;37.756;2023-06-22T18:44:44;99152.28;;;19.67;43.33
42671;BME280;28283;55.426;37.756;2023-06-22T18:49:45;99151.91;;;19.48;45.64
42671;BME280;28283;55.426;37.756;2023-06-22T18:54:46;99154.28;;;19.34;45.03
42671;BME280;28283;55.426;37.756;2023-06-22T18:59:51;99147.69;;;19.25;43.46
42671;BME280;28283;55.426;37.756;2023-06-22T19:10:24;99148.38;;;19.05;44.11
42671;BME280;28283;55.426;37.756;2023-06-22T19:15:31;99153.22;;;18.98;43.67
42671;BME280;28283;55.426;37.756;2023-06-22T19:20:34;99140.06;;;18.89;44.40
42671;BME280;28283;55.426;37.756;2023-06-22T19:25:34;99137.84;;;18.81;45.10
42671;BME280;28283;55.426;37.756;2023-06-22T19:30:35;99122.56;;;18.48;45.87
42671;BME280;28283;55.426;37.756;2023-06-22T19:35:36;99144.97;;;18.60;45.80
42671;BME280;28283;55.426;37.756;2023-06-22T19:40:38;99146.50;;;18.46;46.74
42671;BME280;28283;55.426;37.756;2023-06-22T19:45:41;99149.84;;;18.26;47.35
42671;BME280;28283;55.426;37.756;2023-06-22T19:50:41;99144.59;;;18.19;46.45
42671;BME280;28283;55.426;37.756;2023-06-22T19:55:46;99135.72;;;18.02;46.79
42671;BME280;28283;55.426;37.756;2023-06-22T20:00:47;99145.97;;;17.95;46.21
42671;BME280;28283;55.426;37.756;2023-06-22T20:05:52;99137.91;;;17.83;46.31
42671;BME280;28283;55.426;37.756;2023-06-22T20:10:53;99126.72;;;17.79;47.26
42671;BME280;28283;55.426;37.756;2023-06-22T20:15:55;99115.28;;;17.55;48.39
42671;BME280;28283;55.426;37.756;2023-06-22T20:20:56;99118.13;;;17.43;47.30
42671;BME280;28283;55.426;37.756;2023-06-22T20:25:57;99108.75;;;17.34;48.42
